Time;durP1;ratioP1;P1;durP2;ratioP2;P2;SDS_P1;SDS_P2;PMS_P1;PMS_P2;Temp;Humidity;BMP_temperature;BMP_pressure;BME280_temperature;BME280_humidity;BME280_pressure;Samples;Min_cycle;Max_cycle;Signal;HPM_P1;HPM_P2
2022/12/15 00:39:02;;;;;;;20.77;14.40;;;;;;;-7.32;64.61;100046.59;682359;28;1425;-81
2022/12/15 00:39:22;;;;;;;20.95;14.23;;;;;;;-7.27;64.45;100055.50;680141;29;1301;-80
2022/12/15 00:39:43;;;;;;;21.90;14.30;;;;;;;-7.27;64.26;100067.28;680322;28;1181;-81
2022/12/15 00:40:05;;;;;;;22.88;13.90;;;;;;;-7.26;64.29;100072.50;680316;29;1311;-81
2022/12/15 00:40:26;;;;;;;23.35;14.20;;;;;;;-7.34;64.22;100058.25;677650;29;1261;-81
2022/12/15 00:40:46;;;;;;;22.67;13.95;;;;;;;-7.27;64.12;100070.72;675111;29;1189;-81
2022/12/15 00:41:07;;;;;;;23.00;14.02;;;;;;;-7.34;64.29;100058.25;675124;29;1275;-81
2022/12/15 00:41:27;;;;;;;23.63;14.20;;;;;;;-7.38;64.12;100049.47;677639;29;1135;-81
2022/12/15 00:41:48;;;;;;;25.58;14.77;;;;;;;-7.27;64.20;100068.19;680481;29;742;-81
2022/12/15 00:42:09;;;;;;;25.15;14.52;;;;;;;-7.36;64.38;100059.72;677752;29;1178;-81
2022/12/15 00:42:30;;;;;;;24.08;14.05;;;;;;;-7.35;64.30;100069.13;677914;29;1030;-81
2022/12/15 00:42:50;;;;;;;21.50;13.80;;;;;;;-7.41;64.31;100050.84;675182;29;1060;-81
2022/12/15 00:43:11;;;;;;;23.03;13.90;;;;;;;-7.33;64.28;100067.63;680423;29;1487;-81
2022/12/15 00:43:34;;;;;;;25.27;14.70;;;;;;;-7.33;64.43;100065.97;680471;29;1074;-81
2022/12/15 00:43:54;;;;;;;25.55;14.35;;;;;;;-7.36;64.46;100064.81;675189;29;1346;-80
2022/12/15 00:44:15;;;;;;;23.55;14.23;;;;;;;-7.30;64.35;100067.88;675006;29;1220;-81
2022/12/15 00:44:36;;;;;;;22.75;13.75;;;;;;;-7.39;64.26;100055.31;683104;28;1173;-81
2022/12/15 00:44:57;;;;;;;25.35;13.95;;;;;;;-7.39;64.34;100055.31;677801;29;1319;-81
2022/12/15 00:45:17;;;;;;;26.67;13.48;;;;;;;-7.38;64.37;100067.22;677816;29;1080;-81
2022/12/15 00:46:56;;;;;;;23.90;14.25;;;;;;;-7.31;64.71;100058.50;680414;29;905;-80
2022/12/15 00:47:17;;;;;;;21.27;13.63;;;;;;;-7.28;64.57;100058.75;680453;29;1250;-81
2022/12/15 00:47:37;;;;;;;21.13;13.75;;;;;;;-7.29;64.70;100049.38;680235;29;1118;-81
2022/12/15 00:47:58;;;;;;;20.90;13.53;;;;;;;-7.26;64.41;100056.38;675245;29;1150;-81
2022/12/15 00:48:18;;;;;;;23.75;14.38;;;;;;;-7.21;64.57;100070.34;672445;29;1159;-80
2022/12/15 00:48:40;;;;;;;23.67;13.90;;;;;;;-7.25;64.79;100059.06;680421;29;1208;-81
2022/12/15 00:49:01;;;;;;;26.85;14.40;;;;;;;-7.20;64.47;100067.94;683233;28;875;-80
2022/12/15 00:50:51;;;;;;;20.65;14.27;;;;;;;-7.26;64.45;100057.28;677782;29;1205;-81
2022/12/15 00:51:13;;;;;;;20.92;14.05;;;;;;;-7.25;64.54;100056.50;681425;28;1078;-79
2022/12/15 01:20:33;;;;;;;23.17;14.07;;;;;;;-7.25;64.05;100074.25;682926;28;1010;-81
2022/12/15 01:21:03;;;;;;;22.80;13.77;;;;;;;-7.19;64.36;100079.88;683011;28;820;-81
2022/12/15 01:21:24;;;;;;;25.38;14.20;;;;;;;-7.20;64.43;100078.06;682838;28;1309;-81
2022/12/15 01:21:45;;;;;;;25.58;14.48;;;;;;;-7.20;64.42;100073.00;678972;29;1261;-81
2022/12/15 01:22:06;;;;;;;24.37;14.30;;;;;;;-7.20;64.43;100062.84;680233;29;1039;-81
2022/12/15 01:22:26;;;;;;;23.58;14.20;;;;;;;-7.19;64.36;100063.75;677567;29;1060;-81
2022/12/15 01:22:52;;;;;;;21.80;13.55;;;;;;;-7.12;64.60;100075.31;677761;29;824;-81
2022/12/15 01:23:13;;;;;;;21.00;13.68;;;;;;;-7.13;64.52;100068.47;675055;29;1206;-81
2022/12/15 01:23:35;;;;;;;20.48;13.43;;;;;;;-7.03;64.44;100083.75;675018;29;1183;-81
2022/12/15 01:23:55;;;;;;;24.33;14.13;;;;;;;-7.05;64.62;100075.09;675077;29;907;-80
2022/12/15 01:24:16;;;;;;;24.98;13.90;;;;;;;-7.03;64.64;100078.69;677733;29;1046;-81
2022/12/15 01:24:36;;;;;;;25.07;13.47;;;;;;;-6.94;64.56;100086.19;677454;29;1006;-81
2022/12/15 01:24:57;;;;;;;22.98;13.40;;;;;;;-7.04;64.19;100064.19;677660;29;1347;-81
2022/12/15 01:25:20;;;;;;;22.05;13.05;;;;;;;-6.88;64.58;100089.25;677566;29;1177;-81
2022/12/15 01:25:40;;;;;;;21.50;13.10;;;;;;;-6.95;64.58;100079.34;677689;29;1107;-81
2022/12/15 01:26:02;;;;;;;21.17;12.67;;;;;;;-7.00;64.48;100071.34;680366;29;782;-81
2022/12/15 01:26:22;;;;;;;23.95;12.80;;;;;;;-6.96;64.52;100073.34;677499;29;1113;-81
2022/12/15 01:26:43;;;;;;;25.05;13.20;;;;;;;-6.95;64.34;100070.09;674964;29;1110;-81
2022/12/15 01:27:03;;;;;;;25.80;13.60;;;;;;;-6.91;64.59;100076.31;675095;29;1076;-80
2022/12/15 01:27:24;;;;;;;23.42;14.18;;;;;;;-6.89;64.69;100077.34;675387;29;1080;-80
2022/12/15 01:27:45;;;;;;;22.83;14.00;;;;;;;-6.80;64.27;100094.97;677804;29;1245;-81
2022/12/15 01:28:06;;;;;;;22.58;14.20;;;;;;;-6.91;64.59;100074.66;677606;29;1123;-81
2022/12/15 01:28:27;;;;;;;23.80;13.75;;;;;;;-6.92;64.28;100075.41;677498;29;1171;-81
2022/12/15 01:28:47;;;;;;;22.80;14.13;;;;;;;-6.95;64.37;100064.13;677683;29;1083;-81
2022/12/15 01:29:08;;;;;;;22.80;14.23;;;;;;;-6.94;64.55;100070.97;672404;29;1326;-81
2022/12/15 01:29:28;;;;;;;24.03;14.20;;;;;;;-6.94;64.09;100076.03;677492;29;1051;-81
2022/12/15 01:29:49;;;;;;;24.15;13.77;;;;;;;-6.95;64.49;100074.25;680203;29;1229;-81
2022/12/15 01:30:12;;;;;;;22.58;13.30;;;;;;;-6.97;64.48;100075.78;680240;29;1097;-81
2022/12/15 01:30:33;;;;;;;18.85;13.07;;;;;;;-6.99;64.26;100073.09;680155;29;1431;-81
2022/12/15 01:30:54;;;;;;;21.13;13.07;;;;;;;-6.98;64.32;100077.41;675153;29;1186;-81
2022/12/15 01:31:14;;;;;;;23.52;13.80;;;;;;;-7.00;64.43;100076.41;677543;29;1079;-81
2022/12/15 01:31:35;;;;;;;24.88;14.00;;;;;;;-7.04;64.36;100072.72;677546;29;1064;-81
2022/12/15 01:31:56;;;;;;;20.97;14.17;;;;;;;-6.99;64.22;100074.78;680303;29;902;-81
2022/12/15 01:32:16;;;;;;;21.20;14.23;;;;;;;-7.00;64.44;100076.41;680219;29;1100;-81
2022/12/15 01:32:37;;;;;;;20.88;14.50;;;;;;;-6.99;64.30;100073.09;677521;29;1154;-81
2022/12/15 01:32:57;;;;;;;20.85;14.15;;;;;;;-6.99;64.24;100074.78;674974;29;1279;-80
2022/12/15 01:33:19;;;;;;;20.10;13.87;;;;;;;-6.92;64.59;100090.63;677433;29;1365;-81
2022/12/15 01:33:41;;;;;;;21.15;14.20;;;;;;;-6.98;64.59;100079.94;680203;28;1133;-81
2022/12/15 01:34:02;;;;;;;21.95;14.43;;;;;;;-6.97;64.46;100079.19;675024;29;1221;-81
2022/12/15 01:34:22;;;;;;;24.17;14.25;;;;;;;-7.00;64.63;100068.78;680128;29;1253;-81
2022/12/15 01:34:43;;;;;;;24.93;13.87;;;;;;;-6.99;64.42;100072.22;680366;29;825;-81
2022/12/15 01:35:04;;;;;;;24.52;13.77;;;;;;;-6.98;64.59;100074.00;677623;29;1236;-81
2022/12/15 01:35:26;;;;;;;23.27;13.90;;;;;;;-6.97;64.58;100074.13;674814;29;1327;-81
2022/12/15 01:35:58;;;;;;;23.63;14.27;;;;;;;-6.88;64.55;100091.78;672631;29;765;-80
2022/12/15 01:36:18;;;;;;;24.17;14.00;;;;;;;-7.01;64.76;100072.09;674970;29;1050;-81
2022/12/15 01:36:39;;;;;;;22.85;13.68;;;;;;;-7.04;64.63;100067.63;677371;29;1187;-81
2022/12/15 01:36:59;;;;;;;21.35;13.40;;;;;;;-6.98;64.52;100079.94;680277;29;1280;-81
2022/12/15 01:37:20;;;;;;;19.60;13.00;;;;;;;-6.98;64.65;100081.63;680119;29;1142;-81
2022/12/15 01:38:11;;;;;;;19.43;12.80;;;;;;;-6.88;64.46;100095.97;677708;29;1085;-81
2022/12/15 01:38:32;;;;;;;20.80;12.82;;;;;;;-6.96;64.62;100091.13;680041;29;1960;-81
2022/12/15 01:38:52;;;;;;;21.20;12.95;;;;;;;-7.00;64.28;100084.00;680311;29;796;-81
2022/12/15 01:39:13;;;;;;;21.57;13.23;;;;;;;-7.01;64.23;100079.69;682890;29;1081;-81
2022/12/15 01:41:05;;;;;;;21.50;13.18;;;;;;;-6.92;64.40;100094.81;682314;29;931;-81
2022/12/15 01:41:26;;;;;;;21.23;13.85;;;;;;;-6.99;64.29;100085.78;679913;29;1362;-81
2022/12/15 01:41:46;;;;;;;21.40;14.00;;;;;;;-6.93;64.37;100098.09;675128;29;1245;-81
2022/12/15 01:42:11;;;;;;;22.20;13.83;;;;;;;-6.94;64.48;100097.22;674895;29;1260;-81
2022/12/15 01:42:31;;;;;;;21.55;13.48;;;;;;;-7.05;64.25;100083.63;680117;28;1331;-81
2022/12/15 01:42:52;;;;;;;20.48;13.50;;;;;;;-6.93;64.59;100095.56;680304;29;1165;-81
2022/12/15 01:43:16;;;;;;;20.67;13.70;;;;;;;-6.92;64.15;100102.41;680143;29;1154;-81
2022/12/15 01:43:39;;;;;;;20.18;13.24;;;;;;;-6.98;64.46;100090.09;680270;29;1138;-81
2022/12/15 01:44:19;;;;;;;21.92;13.32;;;;;;;-6.92;64.40;100105.88;685470;28;1254;-81
2022/12/15 01:44:40;;;;;;;23.60;13.90;;;;;;;-6.98;64.34;100100.25;680234;29;848;-81
2022/12/15 01:45:40;;;;;;;21.95;13.48;;;;;;;-6.93;64.46;100106.63;675154;29;741;-81
2022/12/15 01:46:09;;;;;;;20.52;12.77;;;;;;;-6.94;64.23;100111.56;677763;29;854;-81
2022/12/15 01:46:30;;;;;;;20.60;12.60;;;;;;;-7.06;64.21;100097.06;677643;29;1162;-81
2022/12/15 01:46:54;;;;;;;20.40;13.13;;;;;;;-6.99;64.31;100116.22;680315;29;1206;-81
2022/12/15 01:47:16;;;;;;;21.48;13.30;;;;;;;-7.07;64.16;100105.44;680195;29;1102;-81
2022/12/15 01:47:36;;;;;;;21.40;13.63;;;;;;;-7.06;64.39;100098.69;677579;28;1173;-81
2022/12/15 01:48:03;;;;;;;21.77;13.60;;;;;;;-7.12;64.14;100096.50;677608;29;1252;-81
2022/12/15 01:48:26;;;;;;;20.95;13.70;;;;;;;-7.00;64.22;100111.91;677411;29;1128;-81
2022/12/15 01:48:52;;;;;;;20.38;13.30;;;;;;;-7.00;64.09;100111.91;680271;29;1284;-81
2022/12/15 01:49:31;;;;;;;21.92;13.70;;;;;;;-7.11;64.33;100102.50;680268;29;1105;-81
2022/12/15 01:49:53;;;;;;;19.60;12.90;;;;;;;-7.11;64.27;100107.56;680202;29;853;-81
2022/12/15 01:50:15;;;;;;;17.50;11.93;;;;;;;-7.17;64.37;100101.19;674875;29;1252;-81
2022/12/15 01:50:43;;;;;;;19.90;12.20;;;;;;;-7.19;64.14;100097.63;674855;29;1201;-80
2022/12/15 01:51:12;;;;;;;21.98;12.27;;;;;;;-7.14;64.15;100105.63;675078;29;1266;-81
2022/12/15 01:51:36;;;;;;;21.10;12.35;;;;;;;-7.11;64.33;100116.03;680246;28;2008;-81
2022/12/15 01:52:00;;;;;;;20.80;12.82;;;;;;;-7.21;64.17;100096.59;677522;29;1076;-81
2022/12/15 01:52:21;;;;;;;21.75;12.80;;;;;;;-7.15;64.39;100102.97;674795;29;1367;-81
2022/12/15 01:52:42;;;;;;;22.60;13.27;;;;;;;-7.20;64.34;100098.34;677711;29;831;-81
2022/12/15 01:53:03;;;;;;;22.80;13.70;;;;;;;-7.15;64.33;100103.88;680196;29;1901;-81
2022/12/15 01:53:24;;;;;;;23.52;13.98;;;;;;;-7.08;64.64;100112.88;682960;29;1098;-82
2022/12/15 01:54:00;;;;;;;23.25;13.88;;;;;;;-7.10;64.44;100109.34;683002;29;775;-81
2022/12/15 01:54:45;;;;;;;23.20;13.52;;;;;;;-7.09;64.59;100100.97;688123;28;1447;-81
2022/12/15 01:55:05;;;;;;;21.88;13.70;;;;;;;-7.08;64.61;100107.81;685529;28;1331;-81
2022/12/15 01:55:29;;;;;;;21.30;13.70;;;;;;;-6.97;64.63;100116.38;682702;28;1148;-81
2022/12/15 01:55:49;;;;;;;26.58;14.10;;;;;;;-6.99;64.46;100101.00;680216;29;1107;-81
2022/12/15 01:56:11;;;;;;;25.63;13.97;;;;;;;-7.00;64.72;100100.88;680159;29;1305;-81
2022/12/15 01:56:36;;;;;;;25.38;13.75;;;;;;;-6.92;64.64;100116.00;677601;29;1159;-81
2022/12/15 01:57:03;;;;;;;20.52;12.82;;;;;;;-6.90;64.67;100117.03;675119;29;922;-81
2022/12/15 01:57:31;;;;;;;20.60;13.35;;;;;;;-6.96;64.65;100098.72;680376;29;1149;-81
2022/12/15 01:57:59;;;;;;;23.85;13.85;;;;;;;-6.94;64.64;100097.22;681189;29;1093;-81
2022/12/15 01:58:21;;;;;;;24.85;14.00;;;;;;;-6.92;64.70;100094.81;682204;28;1054;-81
2022/12/15 01:58:46;;;;;;;23.52;14.45;;;;;;;-6.92;64.76;100098.25;679585;29;1910;-81
2022/12/15 01:59:13;;;;;;;24.65;15.00;;;;;;;-6.94;64.48;100102.31;679552;29;1297;-81
2022/12/15 01:59:49;;;;;;;24.20;14.57;;;;;;;-6.88;64.81;100108.66;679374;29;1079;-81
2022/12/15 02:00:10;;;;;;;22.55;14.27;;;;;;;-6.92;64.75;100099.88;679460;29;951;-80
2022/12/15 02:00:32;;;;;;;21.95;14.25;;;;;;;-6.93;64.44;100106.63;677373;29;1144;-80
2022/12/15 02:00:53;;;;;;;22.65;14.35;;;;;;;-6.91;64.24;100107.63;680165;29;1219;-81
2022/12/15 02:01:13;;;;;;;24.17;14.07;;;;;;;-6.96;64.31;100106.34;676642;29;1119;-81
2022/12/15 02:01:34;;;;;;;24.17;13.87;;;;;;;-6.95;64.54;100102.16;676604;29;1169;-80
2022/12/15 02:01:55;;;;;;;23.58;13.40;;;;;;;-6.95;64.29;100102.16;679441;29;843;-81
2022/12/15 02:02:20;;;;;;;22.85;13.55;;;;;;;-6.96;64.47;100097.84;679135;29;1414;-80
2022/12/15 02:02:41;;;;;;;21.70;13.73;;;;;;;-6.90;64.33;100117.03;676647;29;815;-82
2022/12/15 02:03:04;;;;;;;21.42;13.60;;;;;;;-7.01;64.46;100097.47;682102;29;1276;-81
2022/12/15 02:03:25;;;;;;;22.08;13.50;;;;;;;-6.97;64.73;100112.16;684590;28;1259;-81
2022/12/15 02:03:46;;;;;;;23.45;13.40;;;;;;;-6.98;64.40;100100.25;681861;29;1121;-81
2022/12/15 02:04:07;;;;;;;21.35;13.23;;;;;;;-6.91;64.50;100115.25;677027;29;1193;-80
2022/12/15 02:04:30;;;;;;;19.94;12.90;;;;;;;-7.00;64.18;100101.78;682091;29;1205;-81
2022/12/15 02:04:52;;;;;;;19.70;13.20;;;;;;;-6.97;64.59;100107.09;679549;29;939;-81
2022/12/15 02:05:13;;;;;;;22.75;13.38;;;;;;;-6.99;64.56;100110.28;676902;29;1166;-82
2022/12/15 02:05:34;;;;;;;24.10;13.37;;;;;;;-7.00;64.21;100111.00;674214;29;1150;-80
2022/12/15 02:05:56;;;;;;;25.25;13.48;;;;;;;-6.95;64.57;100127.53;674182;29;828;-81
2022/12/15 02:06:20;;;;;;;23.77;13.10;;;;;;;-6.94;64.45;100117.53;676640;29;1295;-81
2022/12/15 02:06:41;;;;;;;22.20;13.38;;;;;;;-6.99;64.78;100111.16;678929;29;1430;-80
2022/12/15 02:07:01;;;;;;;22.48;13.48;;;;;;;-6.95;64.17;100117.38;684603;29;1253;-81
2022/12/15 02:07:22;;;;;;;20.57;13.50;;;;;;;-6.92;64.57;100116.00;678672;29;1310;-81
2022/12/15 02:07:42;;;;;;;21.73;12.85;;;;;;;-6.93;65.01;100113.31;676356;29;753;-80
2022/12/15 02:08:03;;;;;;;21.65;12.80;;;;;;;-6.90;64.84;100117.03;678621;29;1227;-80
2022/12/15 02:08:24;;;;;;;24.10;13.30;;;;;;;-6.86;65.05;100114.78;675803;29;1128;-80
2022/12/15 02:08:47;;;;;;;23.10;13.10;;;;;;;-6.88;64.95;100106.13;678234;29;1269;-81
2022/12/15 02:09:07;;;;;;;23.25;13.65;;;;;;;-6.79;64.83;100117.09;675769;29;1142;-80
2022/12/15 02:09:29;;;;;;;21.67;13.30;;;;;;;-6.79;65.07;100112.88;675513;29;1209;-82
2022/12/15 02:09:52;;;;;;;21.05;13.80;;;;;;;-6.75;64.96;100111.50;678500;29;1276;-80
2022/12/15 02:10:13;;;;;;;21.67;13.90;;;;;;;-6.74;65.09;100104.81;678242;29;1207;-81
2022/12/15 02:11:02;;;;;;;21.47;13.83;;;;;;;-6.53;64.93;100131.13;678345;29;1239;-81
2022/12/15 02:11:37;;;;;;;21.20;13.30;;;;;;;-6.57;65.14;100113.84;678326;29;1098;-81
2022/12/15 02:12:06;;;;;;;20.60;13.45;;;;;;;-6.37;65.21;100129.16;681074;29;1041;-80
2022/12/15 02:12:54;;;;;;;19.85;13.20;;;;;;;-6.33;65.15;100126.84;682395;29;999;-81
2022/12/15 02:13:43;;;;;;;21.02;13.60;;;;;;;-6.24;65.04;100115.84;680763;29;1032;-80
2022/12/15 02:14:08;;;;;;;24.55;13.13;;;;;;;-6.14;64.98;100125.13;678250;29;1043;-80
2022/12/15 02:15:13;;;;;;;24.05;13.48;;;;;;;-6.15;64.82;100120.81;682604;28;1117;-81
2022/12/15 02:15:56;;;;;;;21.33;13.15;;;;;;;-6.09;64.72;100126.38;682942;28;1145;-80
2022/12/15 02:16:41;;;;;;;22.30;13.55;;;;;;;-6.02;64.63;100124.38;682873;28;1215;-81
2022/12/15 02:17:17;;;;;;;25.77;15.10;;;;;;;-6.09;64.31;100113.69;680764;29;1189;-81
2022/12/15 02:17:56;;;;;;;25.52;14.77;;;;;;;-6.00;64.26;100131.38;683245;29;1134;-81
2022/12/15 02:18:40;;;;;;;24.60;14.80;;;;;;;-5.99;64.09;100128.06;683328;29;974;-81
2022/12/15 02:19:20;;;;;;;22.25;14.20;;;;;;;-6.03;64.03;100123.50;683235;29;943;-81
2022/12/15 02:20:19;;;;;;;22.50;13.90;;;;;;;-5.97;64.20;100125.66;680724;29;1123;-80
2022/12/15 02:20:51;;;;;;;24.35;14.00;;;;;;;-6.05;64.24;100116.50;677831;29;1280;-81
2022/12/15 02:21:53;;;;;;;26.33;14.07;;;;;;;-5.95;64.00;100129.22;680701;29;1077;-80
2022/12/15 02:22:16;;;;;;;21.23;13.70;;;;;;;-5.95;64.48;100132.66;680392;29;1258;-81
2022/12/15 02:23:14;;;;;;;21.50;14.30;;;;;;;-5.97;64.13;100129.06;680704;29;919;-81
2022/12/15 02:24:10;;;;;;;21.85;13.77;;;;;;;-6.00;63.73;100115.25;677835;29;1279;-81
2022/12/15 02:24:49;;;;;;;25.33;14.90;;;;;;;-5.93;63.89;100120.06;676923;29;1156;-81
2022/12/15 02:25:12;;;;;;;23.02;13.82;;;;;;;-5.95;63.85;100124.13;680744;29;1078;-81
2022/12/15 02:25:38;;;;;;;24.52;14.10;;;;;;;-5.92;63.96;100132.03;680083;29;1262;-81
2022/12/15 02:26:19;;;;;;;23.08;14.00;;;;;;;-5.91;63.74;100131.25;680792;29;1097;-80
2022/12/15 02:27:02;;;;;;;23.02;14.35;;;;;;;-5.90;63.86;100138.13;677892;29;1386;-81
2022/12/15 02:27:37;;;;;;;24.70;14.68;;;;;;;-5.94;63.88;100125.91;675345;29;1206;-81
2022/12/15 02:28:09;;;;;;;25.30;15.10;;;;;;;-5.93;63.71;100132.75;678025;29;1185;-81
2022/12/15 02:28:58;;;;;;;25.20;15.20;;;;;;;-5.88;64.05;100141.66;678161;29;1110;-81
2022/12/15 02:29:57;;;;;;;22.77;14.00;;;;;;;-5.95;63.94;100121.59;672536;29;1280;-80
2022/12/15 02:30:38;;;;;;;25.05;15.18;;;;;;;-5.87;64.14;100134.94;679760;29;973;-81
2022/12/15 02:31:56;;;;;;;20.67;13.90;;;;;;;-5.93;63.88;100117.50;680633;29;1128;-81
2022/12/15 02:32:27;;;;;;;25.27;14.40;;;;;;;-5.85;64.09;100120.72;675682;29;1186;-81
2022/12/15 02:33:22;;;;;;;29.30;14.93;;;;;;;-5.73;63.99;100131.88;676425;29;872;-81
2022/12/15 02:33:51;;;;;;;25.17;15.05;;;;;;;-5.72;63.88;100132.78;680491;29;1282;-81
2022/12/15 02:34:33;;;;;;;25.67;15.00;;;;;;;-5.68;64.07;100140.78;677934;29;1380;-81
2022/12/15 02:35:02;;;;;;;24.90;14.73;;;;;;;-5.68;64.21;100129.75;678105;29;875;-81
2022/12/15 02:35:35;;;;;;;25.70;14.80;;;;;;;-5.60;64.09;100141.44;680715;29;1096;-81
2022/12/15 02:36:14;;;;;;;25.08;14.70;;;;;;;-5.67;63.95;100128.97;683050;29;1754;-81
2022/12/15 02:36:41;;;;;;;24.10;14.98;;;;;;;-5.59;64.01;100139.75;680578;29;1039;-82
2022/12/15 02:37:14;;;;;;;24.73;15.57;;;;;;;-5.61;63.61;100129.47;680513;29;1209;-81
2022/12/15 02:37:37;;;;;;;24.33;15.45;;;;;;;-5.54;63.76;100148.66;680597;29;1217;-82
2022/12/15 02:37:59;;;;;;;24.85;15.27;;;;;;;-5.65;63.55;100132.53;675551;29;1350;-81
2022/12/15 02:38:35;;;;;;;24.33;15.60;;;;;;;-5.62;63.63;100130.22;675234;29;1367;-81
2022/12/15 02:38:55;;;;;;;24.80;15.68;;;;;;;-5.58;63.77;100139.91;678086;29;888;-81
2022/12/15 02:39:17;;;;;;;23.05;15.40;;;;;;;-5.61;63.38;100132.00;680608;29;1277;-81
2022/12/15 02:39:38;;;;;;;22.90;14.73;;;;;;;-5.60;63.49;100128.72;680674;29;1121;-81
2022/12/15 02:39:59;;;;;;;24.83;15.35;;;;;;;-5.63;63.27;100125.91;680788;29;785;-81
2022/12/15 02:40:20;;;;;;;27.30;15.77;;;;;;;-5.56;63.41;100140.91;683201;28;1262;-81
2022/12/15 02:40:41;;;;;;;29.65;15.98;;;;;;;-5.64;63.57;100128.34;680299;29;1172;-81
2022/12/15 02:41:03;;;;;;;28.25;15.20;;;;;;;-5.54;63.35;100144.47;683411;29;756;-80
2022/12/15 02:41:39;;;;;;;27.44;14.34;;;;;;;-5.60;63.35;100130.34;678027;29;1226;-81
2022/12/15 02:41:59;;;;;;;28.13;14.30;;;;;;;-5.61;63.56;100126.91;680416;29;796;-81
2022/12/15 02:42:22;;;;;;;29.77;14.80;;;;;;;-5.54;63.37;100144.47;680408;29;1029;-82
2022/12/15 02:42:46;;;;;;;29.52;15.23;;;;;;;-5.59;63.38;100135.59;683372;29;822;-81
2022/12/15 02:43:08;;;;;;;27.17;15.18;;;;;;;-5.58;63.23;100136.44;686304;28;1003;-81
2022/12/15 02:43:32;;;;;;;24.78;15.44;;;;;;;-5.56;63.60;100140.03;683176;29;1253;-81
2022/12/15 02:43:53;;;;;;;24.90;15.18;;;;;;;-5.60;63.70;100133.81;680736;29;1225;-81
2022/12/15 02:44:24;;;;;;;24.02;15.00;;;;;;;-5.45;63.46;100156.16;675372;29;1299;-81
2022/12/15 02:44:58;;;;;;;22.63;14.48;;;;;;;-5.53;63.59;100140.28;675464;29;898;-81
2022/12/15 02:45:28;;;;;;;21.17;14.95;;;;;;;-5.55;63.66;100135.06;678014;29;1086;-81
2022/12/15 02:46:02;;;;;;;22.95;14.95;;;;;;;-5.45;63.45;100148.50;678128;29;1524;-81
2022/12/15 02:46:45;;;;;;;24.77;14.88;;;;;;;-5.42;63.40;100146.25;678030;29;1144;-81
2022/12/15 02:47:32;;;;;;;27.05;14.85;;;;;;;-5.43;63.55;100152.09;679976;29;1397;-81
2022/12/15 02:48:37;;;;;;;24.50;13.90;;;;;;;-5.44;63.33;100146.09;680658;29;946;-81
2022/12/15 02:49:28;;;;;;;22.80;14.63;;;;;;;-5.50;63.41;100139.66;680735;28;1230;-81
2022/12/15 02:49:58;;;;;;;23.70;14.65;;;;;;;-5.43;63.43;100152.97;682521;29;869;-81
2022/12/15 02:50:40;;;;;;;24.88;15.00;;;;;;;-5.39;63.67;100154.13;677716;29;1999;-81
2022/12/15 02:51:21;;;;;;;26.48;15.48;;;;;;;-5.46;63.65;100146.75;675428;29;917;-81
2022/12/15 02:52:00;;;;;;;25.90;14.90;;;;;;;-5.55;63.74;100131.63;680534;29;1263;-81
2022/12/15 02:52:51;;;;;;;23.73;15.52;;;;;;;-5.43;63.54;100152.09;680398;29;1146;-81
2022/12/15 02:53:35;;;;;;;23.00;15.32;;;;;;;-5.45;63.32;100153.59;683146;29;1381;-81
2022/12/15 02:54:22;;;;;;;22.48;14.18;;;;;;;-5.47;63.39;100150.06;686042;28;889;-81
2022/12/15 02:54:57;;;;;;;25.60;13.80;;;;;;;-5.58;63.67;100131.38;680573;29;845;-81
2022/12/15 02:55:35;;;;;;;24.45;13.90;;;;;;;-5.58;63.72;100136.44;680604;29;1186;-81
2022/12/15 02:56:20;;;;;;;24.30;13.73;;;;;;;-5.51;63.30;100151.44;678099;29;1215;-81
2022/12/15 02:56:48;;;;;;;27.80;14.50;;;;;;;-5.69;63.53;100133.03;676746;29;1646;-81
2022/12/15 02:57:17;;;;;;;29.13;14.93;;;;;;;-5.71;63.53;100129.47;676593;29;1136;-81
2022/12/15 02:57:47;;;;;;;26.38;14.90;;;;;;;-5.71;63.27;100126.94;678101;29;1095;-81
2022/12/15 02:58:18;;;;;;;24.67;14.60;;;;;;;-5.72;63.67;100135.31;680574;29;1033;-81
2022/12/15 02:58:49;;;;;;;24.80;14.82;;;;;;;-5.71;63.31;100137.09;683143;29;1910;-82
2022/12/15 02:59:20;;;;;;;23.20;14.07;;;;;;;-5.77;63.64;100134.03;677921;29;1201;-81
2022/12/15 02:59:54;;;;;;;22.65;14.32;;;;;;;-5.76;63.73;100140.94;678097;29;912;-82
2022/12/15 03:00:16;;;;;;;26.30;14.93;;;;;;;-5.83;63.79;100130.25;677821;29;1199;-81
2022/12/15 03:00:43;;;;;;;27.27;14.82;;;;;;;-5.82;63.74;100126.94;677921;29;1277;-81
2022/12/15 03:01:10;;;;;;;25.90;14.35;;;;;;;-5.84;63.68;100130.09;683304;28;1041;-81
2022/12/15 03:01:42;;;;;;;24.52;14.38;;;;;;;-5.83;63.97;100132.78;677864;29;1185;-81
2022/12/15 03:02:05;;;;;;;22.73;13.90;;;;;;;-5.77;63.70;100144.19;675411;29;1067;-81
2022/12/15 03:02:30;;;;;;;23.17;13.63;;;;;;;-5.82;63.93;100146.38;677953;29;1173;-81
2022/12/15 03:02:53;;;;;;;23.15;13.30;;;;;;;-5.79;63.85;100141.56;683225;29;1275;-81
2022/12/15 03:03:19;;;;;;;24.27;14.00;;;;;;;-5.98;63.54;100123.88;685948;28;1205;-81
2022/12/15 03:03:42;;;;;;;22.33;13.70;;;;;;;-5.91;63.43;100137.97;680579;28;938;-82
2022/12/15 03:04:05;;;;;;;24.60;13.48;;;;;;;-5.90;63.83;100148.28;675451;29;1259;-80
2022/12/15 03:04:26;;;;;;;24.13;13.45;;;;;;;-5.96;63.93;100137.59;683085;29;1174;-81
2022/12/15 03:04:47;;;;;;;23.98;13.52;;;;;;;-5.97;63.71;100139.22;680541;29;1141;-81
2022/12/15 03:05:09;;;;;;;21.65;13.60;;;;;;;-5.95;63.76;100144.44;683204;29;1105;-81
2022/12/15 03:05:30;;;;;;;22.00;13.50;;;;;;;-5.96;63.81;100142.69;678096;29;1208;-81
2022/12/15 03:05:54;;;;;;;22.42;13.50;;;;;;;-6.04;64.07;100131.88;680722;29;1213;-81
2022/12/15 03:06:15;;;;;;;20.80;13.00;;;;;;;-6.10;63.96;100129.69;680639;29;1034;-81
2022/12/15 03:06:37;;;;;;;19.95;12.93;;;;;;;-6.05;64.18;100137.69;680411;29;1212;-81
2022/12/15 03:07:02;;;;;;;20.17;13.38;;;;;;;-6.01;64.19;100147.38;677923;29;1174;-81
2022/12/15 03:07:26;;;;;;;23.52;13.73;;;;;;;-6.14;64.21;100132.75;677883;29;1327;-81
2022/12/15 03:07:52;;;;;;;24.08;14.00;;;;;;;-6.11;63.95;100140.63;677988;29;1273;-81
2022/12/15 03:08:12;;;;;;;24.08;13.75;;;;;;;-6.10;64.29;100142.41;677881;29;1131;-80
2022/12/15 03:08:33;;;;;;;22.77;13.68;;;;;;;-6.05;64.00;100147.00;675362;29;1247;-81
2022/12/15 03:08:54;;;;;;;22.43;13.83;;;;;;;-6.18;64.36;100125.63;677740;29;1227;-81
2022/12/15 03:09:14;;;;;;;21.30;13.60;;;;;;;-6.09;64.27;100143.31;683138;29;1275;-81
2022/12/15 03:09:35;;;;;;;21.75;13.48;;;;;;;-6.13;64.35;100139.59;680550;28;1293;-81
2022/12/15 03:09:58;;;;;;;21.70;13.47;;;;;;;-6.12;64.35;100136.31;680596;29;1083;-81
2022/12/15 03:10:22;;;;;;;23.83;13.27;;;;;;;-5.99;64.29;100157.69;680246;29;954;-81
2022/12/15 03:10:43;;;;;;;22.85;12.82;;;;;;;-6.11;64.54;100137.22;677783;29;1116;-81
2022/12/15 03:11:03;;;;;;;25.05;12.93;;;;;;;-6.16;64.45;100138.47;680192;29;1195;-81
2022/12/15 03:11:24;;;;;;;22.23;13.00;;;;;;;-6.14;64.56;100142.91;680151;28;1117;-81
2022/12/15 03:11:45;;;;;;;24.58;13.18;;;;;;;-6.09;64.54;100151.78;677791;29;1286;-81
2022/12/15 03:12:06;;;;;;;23.45;13.10;;;;;;;-6.18;64.47;100135.78;677764;29;1234;-81
2022/12/15 03:12:27;;;;;;;23.23;13.00;;;;;;;-6.13;64.63;100143.78;677493;29;1279;-81
2022/12/15 03:12:49;;;;;;;21.25;13.23;;;;;;;-6.13;64.74;100147.22;675233;29;1254;-81
2022/12/15 03:13:09;;;;;;;21.77;13.30;;;;;;;-6.09;64.90;100151.78;674448;29;1293;-81
2022/12/15 03:13:30;;;;;;;22.90;13.50;;;;;;;-6.18;64.80;100139.97;677727;29;1281;-81
2022/12/15 03:13:52;;;;;;;23.35;13.60;;;;;;;-6.19;64.65;100150.91;675256;29;814;-81
2022/12/15 03:14:13;;;;;;;21.85;13.27;;;;;;;-6.22;64.53;100143.91;677555;29;1239;-81
2022/12/15 03:14:33;;;;;;;19.70;12.63;;;;;;;-6.19;64.45;100156.00;680330;29;994;-81
2022/12/15 03:14:54;;;;;;;19.48;12.63;;;;;;;-6.26;64.52;100145.31;680311;29;1194;-81
2022/12/15 03:15:16;;;;;;;18.40;12.10;;;;;;;-6.19;64.66;100161.06;680077;29;1137;-81
2022/12/15 03:15:36;;;;;;;22.27;12.75;;;;;;;-6.30;64.53;100150.00;677591;29;1593;-81
2022/12/15 03:15:59;;;;;;;23.02;13.10;;;;;;;-6.23;64.50;100165.00;675129;29;1295;-81
2022/12/15 03:16:20;;;;;;;24.48;14.13;;;;;;;-6.24;64.96;100165.72;680161;29;1229;-81
2022/12/15 03:16:41;;;;;;;21.65;13.82;;;;;;;-6.32;64.97;100154.03;680196;29;1262;-81
2022/12/15 03:17:03;;;;;;;21.45;13.90;;;;;;;-6.24;64.70;100164.09;680324;29;991;-81